ADDS METAR Data INFO
IDs: Format: Raw Decoded Include TAF

Data at: 0931 UTC 11 Dec 2017

KIWD 110856Z AUTO 19007KT 10SM OVC070 M09/M12 A2984 RMK AO2 SLP130 6//// T10941122 58034 FZRANO TSNO PNO $
KIWD 110756Z AUTO 17007KT 10SM OVC120 M11/M13 A2989 RMK AO2 PRESFR SLP147 T11061128 FZRANO PNO $
KIWD 110656Z AUTO 18004KT 10SM CLR M11/M13 A2994 RMK AO2 SLP162 T11111133 FZRANO PNO $
KIWD 110556Z AUTO 18005KT 10SM CLR M11/M13 A2995 RMK AO2 SLP166 6//// T11111133 11083 21111 410611122 58009 FZRANO PNO $
KIWD 110456Z AUTO 18006KT 10SM SCT028 M11/M13 A2996 RMK AO2 SNE01B21E31 SLP171 T11061128 FZRANO PNO $
KIWD 110356Z AUTO 21003KT 9SM -SN OVC028 M10/M12 A2997 RMK AO2 SNB0257E10B51 SLP173 T11001117 FZRANO PNO $
KIWD 110256Z AUTO 18003KT 9SM OVC028 M09/M12 A2998 RMK AO2 SNE54 SLP174 6//// T10891117 58011 FZRANO PNO $
KIWD 110056Z AUTO 23005KT 9SM OVC028 M09/M12 A3000 RMK AO2 SNB09E51 SLP185 T10891117 FZRANO PNO $
KIWD 102356Z AUTO 23004KT 9SM OVC026 M08/M12 A3001 RMK AO2 SNB25E52 SLP186 6//// T10831117 11061 21083 51016 FZRANO PNO $
KIWD 102256Z AUTO 31007KT 10SM OVC026 M08/M12 A3001 RMK AO2 SNE49 SLP185 T10781117 FZRANO PNO $
KIWD 102156Z AUTO 33005KT 9SM -SN OVC024 M08/M11 A2999 RMK AO2 SLP179 T10781111 FZRANO PNO $
KIWD 102056Z AUTO 31008KT 9SM -SN OVC022 M07/M11 A2996 RMK AO2 SLP170 6//// T10721111 53012 FZRANO PNO $
KIWD 102012Z AUTO 33007KT 7SM -SN OVC015 M07/M09 A2995 RMK AO2 FZRANO PNO $
KIWD 101956Z AUTO 33007KT 9SM -SN OVC013 M07/M09 A2995 RMK AO2 SLP166 T10721094 FZRANO PNO $
KIWD 101856Z AUTO 34007KT 9SM -SN OVC013 M07/M09 A2992 RMK AO2 SLP156 T10671094 FZRANO PNO $
KIWD 101756Z AUTO 36007KT 9SM -SN OVC015 M07/M09 A2992 RMK AO2 SLP157 6//// T10671089 11061 21078 53015 FZRANO PNO $
KIWD 101656Z AUTO 34008KT 9SM -SN OVC015 M06/M09 A2991 RMK AO2 SLP153 T10611089 FZRANO PNO $
KIWD 101636Z AUTO 01007KT 9SM -SN OVC015 M06/M09 A2990 RMK AO2 FZRANO PNO $
KIWD 101556Z AUTO 35005KT 8SM -SN OVC013 M06/M08 A2988 RMK AO2 SLP142 T10611083 FZRANO PNO $
KIWD 101554Z AUTO 36006KT 8SM -SN OVC013 M06/M08 A2988 RMK AO2 FZRANO PNO $
KIWD 101356Z AUTO 26006KT 8SM -SN OVC011 M07/M08 A2983 RMK AO2 SLP127 T10721083 FZRANO PNO $
KIWD 101256Z AUTO 27006KT 7SM -SN OVC007 M08/M09 A2982 RMK AO2 SNB00 SLP123 T10781089 FZRANO PNO $
KIWD 101229Z AUTO 27008KT 8SM -SN OVC007 M08/M09 A2982 RMK AO2 SNB00 FZRANO PNO $
KIWD 101156Z AUTO 26009KT 9SM OVC005 M08/M09 A2980 RMK AO2 SLP117 6//// 7//// T10781089 11078 21122 53004 FZRANO PNO $
KIWD 101128Z AUTO 26009KT 3SM BR OVC005 M08/M09 A2979 RMK AO2 FZRANO PNO $
KIWD 101056Z AUTO 25007KT 9SM OVC007 M08/M10 A2978 RMK AO2 SNE45 SLP112 T10831100 FZRANO PNO $
KIWD 101039Z AUTO 26007KT 9SM -SN OVC009 M08/M10 A2979 RMK AO2 FZRANO PNO $
KIWD 100956Z AUTO 22004KT 9SM -SN OVC013 M10/M11 A2978 RMK AO2 SNB38 SLP111 T11001111 FZRANO PNO $
KIWD 100949Z AUTO 22004KT 9SM -SN OVC013 M11/M12 A2978 RMK AO2 SNB38 FZRANO PNO $
KIWD 100856Z AUTO 00000KT 10SM OVC017 M11/M12 A2979 RMK AO2 SLP113 6//// T11061122 55002 FZRANO PNO $
KIWD 100813Z AUTO 24004KT 10SM BKN023 OVC055 M12/M13 A2979 RMK AO2 FZRANO PNO $
KIWD 100756Z AUTO 19003KT 10SM FEW020 BKN060 M12/M13 A2978 RMK AO2 SLP112 T11171128 FZRANO PNO $
KIWD 100656Z AUTO 21004KT 10SM BKN041 OVC060 M09/M12 A2978 RMK AO2 SLP109 T10941117 FZRANO PNO $
KIWD 100556Z AUTO 21007KT 10SM OVC070 M10/M12 A2979 RMK AO2 SNE40 SLP114 6//// T11001122 11100 21139 410611139 56029 FZRANO TSNO PNO $
KIWD 100456Z AUTO 21009KT 5SM -SN BR SCT020 BKN045 OVC065 M11/M13 A2982 RMK AO2 SLP123 T11061128 FZRANO PNO $
KIWD 100443Z AUTO 21006KT 3SM -SN BR BKN020 OVC025 M11/M13 A2983 RMK AO2 FZRANO PNO $
KIWD 100425Z AUTO 21008KT 2 1/2SM -SN BR SCT013 OVC020 M11/M13 A2983 RMK AO2 FZRANO PNO $
KIWD 100418Z AUTO 21008KT 2 1/2SM -SN BR BKN013 OVC020 M11/M13 A2983 RMK AO2 FZRANO PNO $
KIWD 100413Z AUTO 21007KT 3SM -SN BR SCT013 OVC017 M11/M13 A2984 RMK AO2 FZRANO TSNO PNO $
KIWD 100406Z AUTO 21005KT 2 1/2SM -SN BR BKN013 BKN024 OVC031 M11/M13 A2984 RMK AO2 FZRANO PNO $
KIWD 100356Z AUTO 21006KT 2SM -SN BR SCT011 BKN017 OVC039 M11/M13 A2984 RMK AO2 VIS 1 3/4V4 SNB11 SLP132 T11111133 FZRANO PNO $
KIWD 100353Z AUTO 20005KT 2 1/2SM -SN BR SCT013 BKN026 OVC039 M11/M13 A2985 RMK AO2 VIS 1 3/4V5 SNB11 FZRANO PNO $
KIWD 100256Z AUTO 22006KT 10SM BKN065 OVC110 M12/M14 A2988 RMK AO2 SLP146 6//// T11171144 56026 FZRANO PNO $
KIWD 100156Z AUTO 23008KT 10SM BKN090 OVC110 M12/M15 A2991 RMK AO2 SLP155 T11221150 FZRANO PNO $
KIWD 100056Z AUTO 22007KT 10SM BKN100 M13/M15 A2993 RMK AO2 SLP164 T11281150 FZRANO PNO $
KIWD 092356Z AUTO 21004KT 10SM CLR M14/M16 A2996 RMK AO2 SNE19 SLP174 6//// T11391156 11100 21139 58007 FZRANO PNO $
KIWD 092317Z AUTO 22004KT 9SM -SN FEW013 M13/M16 A2998 RMK AO2 FZRANO PNO $
KIWD 092256Z AUTO 24006KT 9SM -SN OVC013 M13/M16 A2998 RMK AO2 SLP180 T11331156 FZRANO PNO $
KIWD 092156Z AUTO 27011KT 8SM -SN OVC017 M12/M15 A2998 RMK AO2 SLP179 T11221150 FZRANO PNO $